Time;durP1;ratioP1;P1;durP2;ratioP2;P2;SDS_P1;SDS_P2;PMS_P1;PMS_P2;Temp;Humidity;BMP_temperature;BMP_pressure;BME280_temperature;BME280_humidity;BME280_pressure;Samples;Min_cycle;Max_cycle;Signal;HPM_P1;HPM_P2
2022/04/23 00:02:10;;;;;;;;;;;;;;;13.93;100.00;97961.63;5063101;28;19920;-43
2022/04/23 00:04:35;;;;;;;;;;;;;;;14.56;100.00;97960.25;5062972;28;19921;-43
2022/04/23 00:07:00;;;;;;;;;;;;;;;14.45;100.00;97949.72;5063995;28;20316;-43
2022/04/23 00:09:26;;;;;;;;;;;;;;;13.85;100.00;97952.69;5063858;28;19959;-43
2022/04/23 00:11:55;;;;;;;;;;;;;;;13.71;100.00;97951.78;5061492;28;19971;-43
2022/04/23 00:14:20;;;;;;;;;;;;;;;13.44;100.00;97951.72;5059380;28;19924;-43
2022/04/23 00:16:46;;;;;;;;;;;;;;;13.63;100.00;97958.34;5063723;28;19920;-43
2022/04/23 00:19:11;;;;;;;;;;;;;;;13.75;100.00;97950.69;5063529;28;19916;-43
2022/04/23 00:21:36;;;;;;;;;;;;;;;13.36;100.00;97949.59;5062428;28;20506;-43
2022/04/23 00:24:02;;;;;;;;;;;;;;;13.47;100.00;97958.47;5061996;28;20304;-43
2022/04/23 00:26:27;;;;;;;;;;;;;;;13.38;100.00;97950.31;5062650;28;19932;-43
2022/04/23 00:28:53;;;;;;;;;;;;;;;13.42;100.00;97945.81;5060462;28;20337;-43
2022/04/23 00:31:19;;;;;;;;;;;;;;;13.16;100.00;97955.09;5062172;28;19928;-43
2022/04/23 00:33:44;;;;;;;;;;;;;;;13.37;100.00;97959.00;5062102;28;19920;-43
2022/04/23 00:36:12;;;;;;;;;;;;;;;13.20;100.00;97964.31;5061627;28;19930;-43
2022/04/23 00:38:40;;;;;;;;;;;;;;;14.34;100.00;97955.59;5065200;28;20885;-43
2022/04/23 00:41:05;;;;;;;;;;;;;;;14.05;100.00;97965.22;5062198;28;19920;-43
2022/04/23 00:43:33;;;;;;;;;;;;;;;14.46;100.00;97956.59;5064828;28;19917;-43
2022/04/23 00:45:59;;;;;;;;;;;;;;;14.19;100.00;97962.59;5065065;28;19919;-43
2022/04/23 00:48:26;;;;;;;;;;;;;;;13.66;100.00;97958.16;5059576;28;19912;-43
2022/04/23 00:50:52;;;;;;;;;;;;;;;13.54;100.00;97960.56;5066783;28;19927;-43
2022/04/23 00:53:19;;;;;;;;;;;;;;;13.51;100.00;97965.13;5061809;28;19919;-43
2022/04/23 00:55:44;;;;;;;;;;;;;;;13.68;100.00;97966.66;5060527;28;19920;-43
2022/04/23 00:58:09;;;;;;;;;;;;;;;13.46;100.00;97956.81;5060806;28;20635;-43
2022/04/23 01:00:37;;;;;;;;;;;;;;;13.70;100.00;97962.22;5060943;28;20041;-43
2022/04/23 01:03:03;;;;;;;;;;;;;;;13.95;100.00;97954.59;5062616;28;19919;-43
2022/04/23 01:05:28;;;;;;;;;;;;;;;13.62;100.00;97956.72;5060440;28;20443;-43
2022/04/23 01:07:53;;;;;;;;;;;;;;;14.17;100.00;97954.09;5064057;28;19920;-43
2022/04/23 01:10:19;;;;;;;;;;;;;;;13.35;100.00;97960.84;5066574;28;19925;-43
2022/04/23 01:12:47;;;;;;;;;;;;;;;14.21;100.00;97950.38;5065632;28;19946;-43
2022/04/23 01:15:16;;;;;;;;;;;;;;;14.59;100.00;97944.50;5064694;28;20339;-43
2022/04/23 01:17:41;;;;;;;;;;;;;;;14.36;100.00;97942.56;5065162;28;19916;-43
2022/04/23 01:20:08;;;;;;;;;;;;;;;13.86;100.00;97949.16;5064906;28;19922;-43
2022/04/23 01:22:33;;;;;;;;;;;;;;;13.61;100.00;97942.91;5062457;28;19916;-43
2022/04/23 01:24:58;;;;;;;;;;;;;;;14.03;100.00;97946.38;5067393;28;20720;-43
2022/04/23 01:27:25;;;;;;;;;;;;;;;13.74;100.00;97936.06;5064433;28;20015;-43
2022/04/23 01:29:50;;;;;;;;;;;;;;;13.69;100.00;97938.13;5063889;28;19994;-43
2022/04/23 01:32:16;;;;;;;;;;;;;;;13.70;100.00;97939.75;5063535;28;19920;-43
2022/04/23 01:34:41;;;;;;;;;;;;;;;13.23;100.00;97934.84;5065805;28;19947;-43
2022/04/23 01:37:07;;;;;;;;;;;;;;;13.62;100.00;97930.84;5066366;28;19955;-43
2022/04/23 01:39:32;;;;;;;;;;;;;;;13.49;100.00;97935.91;5063838;28;19916;-43
2022/04/23 01:41:58;;;;;;;;;;;;;;;13.00;100.00;97938.81;5065838;28;21061;-43
2022/04/23 01:44:23;;;;;;;;;;;;;;;12.86;100.00;97932.69;5066890;28;19944;-43
2022/04/23 01:46:48;;;;;;;;;;;;;;;13.14;100.00;97931.09;5064410;28;19920;-43
2022/04/23 01:49:13;;;;;;;;;;;;;;;12.83;100.00;97932.88;5065252;28;20395;-43
2022/04/23 01:51:38;;;;;;;;;;;;;;;13.55;100.00;97927.78;5064637;28;19931;-43
2022/04/23 01:54:04;;;;;;;;;;;;;;;13.94;100.00;97931.41;5064278;28;19916;-43
2022/04/23 01:56:29;;;;;;;;;;;;;;;14.01;100.00;97933.50;5064419;28;19966;-43
2022/04/23 01:58:55;;;;;;;;;;;;;;;14.43;100.00;97943.81;5062159;28;20453;-43
2022/04/23 02:01:20;;;;;;;;;;;;;;;13.44;100.00;97932.78;5062167;28;19924;-43
2022/04/23 02:03:45;;;;;;;;;;;;;;;13.36;100.00;97931.50;5065508;28;20742;-43
2022/04/23 02:06:12;;;;;;;;;;;;;;;14.18;100.00;97929.84;5061674;28;19965;-43
2022/04/23 02:08:37;;;;;;;;;;;;;;;13.35;100.00;97929.81;5062038;28;19925;-43
2022/04/23 02:11:02;;;;;;;;;;;;;;;12.91;100.00;97932.47;5062860;28;19923;-43
2022/04/23 02:13:28;;;;;;;;;;;;;;;13.61;100.00;97927.41;5065611;28;19926;-43
2022/04/23 02:15:53;;;;;;;;;;;;;;;13.25;100.00;97933.88;5064343;28;20010;-43
2022/04/23 02:18:21;;;;;;;;;;;;;;;13.06;100.00;97930.69;5064977;28;19923;-43
2022/04/23 02:20:46;;;;;;;;;;;;;;;13.05;100.00;97929.88;5065545;28;19951;-43
2022/04/23 02:23:11;;;;;;;;;;;;;;;12.94;100.00;97933.09;5065217;28;20076;-43
2022/04/23 02:25:37;;;;;;;;;;;;;;;12.77;100.00;97933.22;5067660;28;19920;-43
2022/04/23 02:28:02;;;;;;;;;;;;;;;13.09;100.00;97930.50;5065352;28;19920;-43
2022/04/23 02:30:28;;;;;;;;;;;;;;;12.85;100.00;97923.28;5065204;28;19939;-43
2022/04/23 02:32:53;;;;;;;;;;;;;;;13.25;100.00;97933.88;5065561;28;19920;-43
2022/04/23 02:35:20;;;;;;;;;;;;;;;12.93;100.00;97933.16;5064993;28;19924;-44
2022/04/23 02:37:45;;;;;;;;;;;;;;;12.84;100.00;97934.56;5067304;28;19967;-43
2022/04/23 02:40:11;;;;;;;;;;;;;;;13.73;100.00;97942.19;5062071;28;20024;-43
2022/04/23 02:42:37;;;;;;;;;;;;;;;12.92;100.00;97937.50;5064408;28;19963;-43
2022/04/23 02:45:03;;;;;;;;;;;;;;;13.04;100.00;97940.28;5067916;28;19920;-43
2022/04/23 02:47:28;;;;;;;;;;;;;;;13.37;100.00;97933.16;5063897;28;20487;-43
2022/04/23 02:49:54;;;;;;;;;;;;;;;13.35;100.00;97932.41;5065461;28;19921;-43
2022/04/23 02:52:20;;;;;;;;;;;;;;;13.15;100.00;97940.50;5063995;28;19962;-43
2022/04/23 02:54:45;;;;;;;;;;;;;;;12.43;100.00;97932.59;5063394;28;19967;-43
2022/04/23 02:57:11;;;;;;;;;;;;;;;13.59;100.00;97930.09;5062804;28;20124;-43
2022/04/23 02:59:37;;;;;;;;;;;;;;;12.98;100.00;97926.81;5065428;28;19953;-43
2022/04/23 03:02:03;;;;;;;;;;;;;;;13.39;100.00;97928.72;5065093;28;20477;-43
2022/04/23 03:04:28;;;;;;;;;;;;;;;13.07;100.00;97929.78;5062737;28;19920;-43
2022/04/23 03:06:54;;;;;;;;;;;;;;;12.20;100.00;97935.63;5065243;28;19924;-43
2022/04/23 03:09:20;;;;;;;;;;;;;;;12.47;100.00;97925.50;5062592;28;20019;-43
2022/04/23 03:11:45;;;;;;;;;;;;;;;13.19;100.00;97931.66;5063238;28;19931;-43
2022/04/23 03:14:10;;;;;;;;;;;;;;;13.15;100.00;97930.97;5065936;28;20019;-43
2022/04/23 03:16:36;;;;;;;;;;;;;;;12.98;100.00;97936.34;5064058;28;20389;-43
2022/04/23 03:19:01;;;;;;;;;;;;;;;13.58;100.00;97930.19;5067017;28;20282;-43
2022/04/23 03:21:26;;;;;;;;;;;;;;;12.80;100.00;97938.25;5063728;28;19926;-43
2022/04/23 03:23:52;;;;;;;;;;;;;;;13.27;100.00;97947.50;5062497;28;19963;-43
2022/04/23 03:26:17;;;;;;;;;;;;;;;13.18;100.00;97948.06;5065222;28;20388;-43
2022/04/23 03:28:42;;;;;;;;;;;;;;;12.48;100.00;97938.34;5064579;28;19921;-43
2022/04/23 03:31:10;;;;;;;;;;;;;;;12.77;100.00;97936.66;5059621;28;19920;-43
2022/04/23 03:33:35;;;;;;;;;;;;;;;13.50;100.00;97937.56;5062685;28;20003;-43
2022/04/23 03:36:01;;;;;;;;;;;;;;;12.74;100.00;97938.59;5064588;28;19984;-43
2022/04/23 03:38:26;;;;;;;;;;;;;;;13.03;100.00;97933.47;5065110;28;19974;-44
2022/04/23 03:40:53;;;;;;;;;;;;;;;12.96;100.00;97931.25;5062403;28;19999;-43
2022/04/23 03:43:22;;;;;;;;;;;;;;;13.21;100.00;97926.38;5060762;28;19916;-43
2022/04/23 03:45:47;;;;;;;;;;;;;;;12.83;100.00;97925.13;5062088;28;19920;-43
2022/04/23 03:48:14;;;;;;;;;;;;;;;12.86;100.00;97922.34;5065729;28;19924;-43
2022/04/23 03:50:39;;;;;;;;;;;;;;;13.15;100.00;97922.41;5066324;28;20014;-43
2022/04/23 03:53:04;;;;;;;;;;;;;;;12.87;100.00;97923.22;5062553;28;20638;-43
2022/04/23 03:55:31;;;;;;;;;;;;;;;13.28;100.00;97928.53;5064374;28;19927;-45
2022/04/23 03:57:56;;;;;;;;;;;;;;;12.28;100.00;97928.31;5063984;28;20038;-43
2022/04/23 04:00:21;;;;;;;;;;;;;;;13.03;100.00;97928.31;5061027;28;19935;-41
2022/04/23 04:02:47;;;;;;;;;;;;;;;12.62;100.00;97926.38;5063449;28;20328;-41
2022/04/23 04:05:12;;;;;;;;;;;;;;;13.35;100.00;97924.66;5064447;28;20013;-41
2022/04/23 04:07:44;;;;;;;;;;;;;;;13.17;100.00;97930.91;5065015;28;19966;-41
2022/04/23 04:10:10;;;;;;;;;;;;;;;13.04;100.00;97932.53;5060748;28;19928;-41
2022/04/23 04:12:36;;;;;;;;;;;;;;;13.00;100.00;97931.06;5061592;28;19920;-43
2022/04/23 04:15:03;;;;;;;;;;;;;;;12.21;100.00;97932.16;5064073;28;19986;-43
2022/04/23 04:17:28;;;;;;;;;;;;;;;12.36;100.00;97928.69;5063284;28;19920;-43
2022/04/23 04:19:54;;;;;;;;;;;;;;;13.72;100.00;97927.56;5065494;28;20899;-43
2022/04/23 04:22:21;;;;;;;;;;;;;;;13.28;100.00;97936.28;5065245;28;20987;-43
2022/04/23 04:24:46;;;;;;;;;;;;;;;12.67;100.00;97937.28;5064658;28;20761;-43
2022/04/23 04:27:11;;;;;;;;;;;;;;;13.07;100.00;97933.22;5062560;28;20006;-43
2022/04/23 04:29:36;;;;;;;;;;;;;;;13.21;100.00;97942.72;5062427;28;20361;-43
2022/04/23 04:32:02;;;;;;;;;;;;;;;13.49;100.00;97946.25;5062083;28;19974;-43
2022/04/23 04:34:28;;;;;;;;;;;;;;;12.47;100.00;97934.06;5065312;28;19974;-43
2022/04/23 04:37:00;;;;;;;;;;;;;;;13.18;100.00;97936.00;5061958;28;19927;-43
2022/04/23 04:39:25;;;;;;;;;;;;;;;13.11;100.00;97933.84;5061675;28;20370;-43
2022/04/23 04:41:51;;;;;;;;;;;;;;;13.16;100.00;97934.41;5066418;28;19920;-43
2022/04/23 04:44:16;;;;;;;;;;;;;;;13.44;100.00;97932.78;5068344;28;19928;-43
2022/04/23 04:46:42;;;;;;;;;;;;;;;13.51;100.00;97934.06;5064956;28;20480;-43
2022/04/23 04:49:07;;;;;;;;;;;;;;;13.23;100.00;97922.78;5068276;28;19920;-43
2022/04/23 04:51:35;;;;;;;;;;;;;;;12.72;100.00;97930.09;5066495;28;19928;-43
2022/04/23 04:54:00;;;;;;;;;;;;;;;12.77;100.00;97928.06;5065335;28;19917;-43
2022/04/23 04:56:25;;;;;;;;;;;;;;;12.45;100.00;97933.34;5067892;28;19925;-43
2022/04/23 04:58:50;;;;;;;;;;;;;;;13.51;100.00;97936.66;5066479;28;19920;-43
2022/04/23 05:01:16;;;;;;;;;;;;;;;12.96;100.00;97938.19;5067025;28;19921;-43
2022/04/23 05:03:41;;;;;;;;;;;;;;;13.37;100.00;97930.56;5068258;28;19966;-43
2022/04/23 05:06:07;;;;;;;;;;;;;;;13.58;100.00;97935.34;5067740;28;20054;-43
2022/04/23 05:08:34;;;;;;;;;;;;;;;12.94;100.00;97935.69;5067283;28;19963;-43
2022/04/23 05:10:59;;;;;;;;;;;;;;;13.11;100.00;97942.44;5068917;28;19916;-43
2022/04/23 05:13:24;;;;;;;;;;;;;;;13.16;100.00;97937.84;5070883;28;19920;-43
2022/04/23 05:15:49;;;;;;;;;;;;;;;13.15;100.00;97943.09;5068436;28;19917;-43
2022/04/23 05:18:15;;;;;;;;;;;;;;;13.52;100.00;97944.31;5067234;28;19931;-43
2022/04/23 05:20:40;;;;;;;;;;;;;;;12.71;100.00;97946.53;5066108;28;20011;-43
2022/04/23 05:23:05;;;;;;;;;;;;;;;13.23;100.00;97946.06;5068460;28;20035;-43
2022/04/23 05:25:30;;;;;;;;;;;;;;;13.95;100.00;97946.84;5071695;28;19916;-43
2022/04/23 05:27:57;;;;;;;;;;;;;;;14.28;100.00;97937.03;5066558;28;20304;-43
2022/04/23 05:30:22;;;;;;;;;;;;;;;13.44;100.00;97943.13;5067800;28;19916;-43
2022/04/23 05:32:48;;;;;;;;;;;;;;;13.11;100.00;97944.19;5066641;28;19966;-43
2022/04/23 05:35:13;;;;;;;;;;;;;;;13.16;100.00;97940.41;5069630;28;19924;-43
2022/04/23 05:37:39;;;;;;;;;;;;;;;13.00;100.00;97943.97;5068901;28;21006;-43
2022/04/23 05:40:05;;;;;;;;;;;;;;;12.52;100.00;97945.00;5072879;28;20339;-43
2022/04/23 05:42:30;;;;;;;;;;;;;;;12.89;100.00;97937.69;5070327;28;19916;-42
2022/04/23 05:44:55;;;;;;;;;;;;;;;13.70;100.00;97944.13;5067952;28;20423;-44
2022/04/23 05:47:21;;;;;;;;;;;;;;;13.76;100.00;97943.75;5065776;28;19923;-42
2022/04/23 05:49:46;;;;;;;;;;;;;;;13.37;100.00;97948.66;5066456;28;19928;-43
2022/04/23 05:52:11;;;;;;;;;;;;;;;13.19;100.00;97949.75;5065052;28;19917;-43
2022/04/23 05:54:36;;;;;;;;;;;;;;;14.11;100.00;97944.09;5066093;28;20649;-43
2022/04/23 05:57:02;;;;;;;;;;;;;;;13.57;100.00;97949.19;5065892;28;20687;-43
2022/04/23 05:59:30;;;;;;;;;;;;;;;13.85;100.00;97955.28;5069197;28;20402;-43
2022/04/23 06:01:55;;;;;;;;;;;;;;;13.84;100.00;97961.38;5063735;28;19978;-43
2022/04/23 06:04:22;;;;;;;;;;;;;;;13.92;100.00;97957.38;5066290;28;19923;-43
2022/04/23 06:06:47;;;;;;;;;;;;;;;14.56;100.00;97955.06;5065255;28;19993;-43
2022/04/23 06:09:12;;;;;;;;;;;;;;;14.09;100.00;97953.72;5064837;28;20359;-43
2022/04/23 06:11:38;;;;;;;;;;;;;;;14.33;100.00;97953.13;5065364;28;19916;-43
2022/04/23 06:14:03;;;;;;;;;;;;;;;14.57;100.00;97953.31;5062368;28;20454;-44
2022/04/23 06:16:28;;;;;;;;;;;;;;;14.17;100.00;97959.25;5065914;28;19957;-43
2022/04/23 06:18:53;;;;;;;;;;;;;;;14.46;100.00;97950.56;5062037;28;19917;-43
2022/04/23 06:21:19;;;;;;;;;;;;;;;14.57;100.00;97951.56;5060664;28;20377;-43
2022/04/23 06:23:44;;;;;;;;;;;;;;;14.35;100.00;97951.25;5065218;28;20444;-43
2022/04/23 06:26:10;;;;;;;;;;;;;;;13.67;100.00;97965.84;5063413;28;19928;-43
2022/04/23 06:28:35;;;;;;;;;;;;;;;14.36;100.00;97958.91;5063910;28;19924;-43
2022/04/23 06:31:00;;;;;;;;;;;;;;;14.78;100.00;97957.09;5063264;28;20349;-44
2022/04/23 06:33:25;;;;;;;;;;;;;;;13.68;100.00;97962.31;5062128;28;19948;-43
2022/04/23 06:35:51;;;;;;;;;;;;;;;14.19;100.00;97954.81;5064995;28;20018;-43
2022/04/23 06:38:16;;;;;;;;;;;;;;;14.77;100.00;97958.00;5062398;28;19920;-43
2022/04/23 06:40:41;;;;;;;;;;;;;;;13.43;100.00;97956.97;5064476;28;19918;-43
2022/04/23 06:43:06;;;;;;;;;;;;;;;14.43;100.00;97960.19;5064540;28;19917;-43
2022/04/23 06:45:32;;;;;;;;;;;;;;;14.10;100.00;97952.81;5063068;28;19920;-43
2022/04/23 06:48:06;;;;;;;;;;;;;;;14.66;100.00;97955.31;5064254;28;19951;-44
2022/04/23 06:50:32;;;;;;;;;;;;;;;14.60;100.00;97951.38;5063647;28;19946;-43
2022/04/23 06:52:58;;;;;;;;;;;;;;;14.99;100.00;97952.25;5064461;28;19983;-42
2022/04/23 06:55:24;;;;;;;;;;;;;;;14.90;100.00;97952.88;5063137;28;19920;-43
2022/04/23 06:57:49;;;;;;;;;;;;;;;14.80;100.00;97954.38;5062959;28;19920;-43
2022/04/23 07:00:14;;;;;;;;;;;;;;;15.25;100.00;97957.44;5061463;28;20400;-43
2022/04/23 07:02:39;;;;;;;;;;;;;;;15.24;100.00;97951.44;5063533;28;19921;-43
2022/04/23 07:05:05;;;;;;;;;;;;;;;15.79;100.00;97952.00;5061382;28;20015;-43
2022/04/23 07:07:33;;;;;;;;;;;;;;;14.62;100.00;97948.69;5060182;28;19963;-43
2022/04/23 07:09:58;;;;;;;;;;;;;;;15.11;100.00;97955.78;5062583;28;19924;-43
2022/04/23 07:12:24;;;;;;;;;;;;;;;14.83;100.00;97956.81;5060289;28;19920;-43
2022/04/23 07:14:49;;;;;;;;;;;;;;;14.91;100.00;97959.69;5062803;28;19966;-43
2022/04/23 07:17:14;;;;;;;;;;;;;;;15.75;100.00;97947.97;5059421;28;19973;-43
2022/04/23 07:19:40;;;;;;;;;;;;;;;15.71;100.00;97951.72;5061902;28;19920;-42
2022/04/23 07:22:06;;;;;;;;;;;;;;;15.98;100.00;97938.56;5061514;28;19974;-43
2022/04/23 07:24:31;;;;;;;;;;;;;;;16.20;100.00;97952.63;5060027;28;19921;-43
2022/04/23 07:26:59;;;;;;;;;;;;;;;15.95;100.00;97943.97;5061885;28;20484;-43
2022/04/23 07:29:24;;;;;;;;;;;;;;;15.61;100.00;97958.47;5055701;28;19929;-43
2022/04/23 07:31:49;;;;;;;;;;;;;;;15.63;100.00;97954.00;5054483;28;19987;-43
2022/04/23 07:39:44;;;;;;;;;;;;;;;15.74;100.00;97937.72;5059679;28;20707;-43
2022/04/23 07:42:09;;;;;;;;;;;;;;;16.14;100.00;97948.69;5060362;28;19931;-43
2022/04/23 07:44:36;;;;;;;;;;;;;;;15.46;100.00;97958.59;5062775;28;19925;-43
2022/04/23 07:47:01;;;;;;;;;;;;;;;15.88;100.00;97951.38;5063787;28;19967;-43
2022/04/23 07:49:27;;;;;;;;;;;;;;;16.80;100.00;97956.06;5060713;28;20024;-41
2022/04/23 07:51:52;;;;;;;;;;;;;;;16.38;100.00;97953.06;5061767;28;20573;-41
2022/04/23 07:54:17;;;;;;;;;;;;;;;15.35;100.00;97955.91;5061445;28;19961;-41
2022/04/23 07:56:44;;;;;;;;;;;;;;;16.36;100.00;97960.97;5062031;28;19920;-43
2022/04/23 07:59:09;;;;;;;;;;;;;;;16.25;100.00;97943.53;5060554;28;19927;-44
2022/04/23 08:01:34;;;;;;;;;;;;;;;16.31;100.00;97953.50;5059428;28;19916;-44
2022/04/23 08:04:02;;;;;;;;;;;;;;;16.26;100.00;97940.03;5063094;28;20871;-44
2022/04/23 08:06:28;;;;;;;;;;;;;;;17.61;100.00;97943.84;5060862;28;19916;-43
2022/04/23 08:08:53;;;;;;;;;;;;;;;16.01;100.00;97945.28;5060702;28;19967;-43
2022/04/23 08:11:19;;;;;;;;;;;;;;;16.63;100.00;97949.50;5059641;28;19932;-44
2022/04/23 08:13:44;;;;;;;;;;;;;;;16.26;100.00;97945.22;5063723;28;19917;-43
2022/04/23 08:16:10;;;;;;;;;;;;;;;16.46;100.00;97948.13;5058536;28;19989;-44
2022/04/23 08:18:35;;;;;;;;;;;;;;;16.53;100.00;97941.53;5067872;28;19929;-43
2022/04/23 08:21:01;;;;;;;;;;;;;;;16.98;100.00;97931.28;5060972;28;19916;-44
2022/04/23 08:23:26;;;;;;;;;;;;;;;16.17;100.00;97940.69;5065534;28;19920;-44
2022/04/23 08:25:55;;;;;;;;;;;;;;;16.57;100.00;97927.38;5064862;28;19919;-43
2022/04/23 08:31:05;;;;;;;;;;;;;;;16.18;100.00;97924.16;5067232;28;19947;-44
2022/04/23 08:33:57;;;;;;;;;;;;;;;16.26;100.00;97927.03;5060174;28;20014;-43
2022/04/23 08:36:15;;;;;;;;;;;;;;;16.56;100.00;97925.72;5066672;28;20237;-43
2022/04/23 08:38:40;;;;;;;;;;;;;;;16.80;100.00;97919.69;5063454;28;19928;-44
2022/04/23 08:41:06;;;;;;;;;;;;;;;17.07;100.00;97914.16;5061989;28;19923;-44
2022/04/23 08:43:31;;;;;;;;;;;;;;;16.55;100.00;97934.44;5065174;28;20038;-43
2022/04/23 08:45:57;;;;;;;;;;;;;;;17.02;100.00;97921.50;5068110;28;19954;-44
2022/04/23 08:48:22;;;;;;;;;;;;;;;16.95;100.00;97917.72;5062095;28;19931;-43
2022/04/23 08:50:48;;;;;;;;;;;;;;;16.69;100.00;97916.09;5063864;28;20434;-43
2022/04/23 08:53:14;;;;;;;;;;;;;;;16.96;100.00;97914.97;5065451;28;19973;-44
2022/04/23 08:55:44;;;;;;;;;;;;;;;16.19;100.00;97918.00;5061421;28;20023;-43
2022/04/23 08:58:09;;;;;;;;;;;;;;;16.87;100.00;97918.28;5061142;28;19974;-44
2022/04/23 09:00:35;;;;;;;;;;;;;;;16.73;100.00;97921.88;5062492;28;19920;-43
2022/04/23 09:03:00;;;;;;;;;;;;;;;17.47;100.00;97909.34;5064382;28;19969;-43
2022/04/23 09:05:27;;;;;;;;;;;;;;;17.06;100.00;97918.56;5064829;28;19932;-43
2022/04/23 09:07:53;;;;;;;;;;;;;;;18.15;100.00;97904.00;5062672;28;19916;-43
2022/04/23 09:10:19;;;;;;;;;;;;;;;17.50;100.00;97906.50;5067642;28;19927;-44
2022/04/23 09:12:58;;;;;;;;;;;;;;;17.43;100.00;97905.31;5059180;28;19920;-43
2022/04/23 09:23:43;;;;;;;;;;;;;;;17.36;100.00;97914.53;5058818;28;19964;-44
2022/04/23 09:26:18;;;;;;;;;;;;;;;18.32;100.00;97907.88;5066876;28;19916;-44
2022/04/23 09:28:44;;;;;;;;;;;;;;;18.50;100.00;97913.38;5060656;28;19920;-43
2022/04/23 09:31:13;;;;;;;;;;;;;;;17.68;100.00;97921.63;5063801;28;19920;-43
2022/04/23 09:33:49;;;;;;;;;;;;;;;18.76;100.00;97917.25;5066277;28;20007;-43
2022/04/23 09:36:14;;;;;;;;;;;;;;;18.66;100.00;97916.38;5062976;28;19922;-43
2022/04/23 09:38:43;;;;;;;;;;;;;;;18.02;100.00;97911.16;5061667;28;19917;-43
2022/04/23 09:41:19;;;;;;;;;;;;;;;17.93;100.00;97923.16;5061573;28;19955;-43
2022/04/23 09:43:45;;;;;;;;;;;;;;;17.84;100.00;97916.91;5066360;28;20069;-43
2022/04/23 09:46:10;;;;;;;;;;;;;;;18.15;100.00;97914.44;5064310;28;20016;-43
2022/04/23 09:48:38;;;;;;;;;;;;;;;19.49;100.00;97919.84;5065033;28;20027;-43
2022/04/23 09:51:03;;;;;;;;;;;;;;;17.48;100.00;97925.78;5063371;28;19916;-43
2022/04/23 09:53:29;;;;;;;;;;;;;;;18.36;100.00;97925.75;5063379;28;19974;-44
2022/04/23 09:56:04;;;;;;;;;;;;;;;18.12;100.00;97925.94;5061909;28;19920;-43
2022/04/23 09:58:29;;;;;;;;;;;;;;;17.94;100.00;97920.41;5063185;28;19920;-44
2022/04/23 10:00:56;;;;;;;;;;;;;;;18.80;100.00;97918.69;5061823;28;20484;-43
2022/04/23 10:03:25;;;;;;;;;;;;;;;18.78;100.00;97925.00;5064546;28;19916;-43
2022/04/23 10:05:50;;;;;;;;;;;;;;;17.95;100.00;97922.09;5061798;28;19921;-43
2022/04/23 10:08:17;;;;;;;;;;;;;;;17.97;100.00;97920.19;5061537;28;19974;-44
2022/04/23 10:10:43;;;;;;;;;;;;;;;18.49;100.00;97914.31;5060399;28;19924;-43
2022/04/23 10:13:08;;;;;;;;;;;;;;;18.20;100.00;97917.53;5064745;28;19916;-44
2022/04/23 10:15:34;;;;;;;;;;;;;;;18.86;100.00;97925.19;5063826;28;19924;-43
2022/04/23 10:17:59;;;;;;;;;;;;;;;18.45;96.54;97924.19;5062453;28;20018;-44
2022/04/23 10:20:25;;;;;;;;;;;;;;;18.64;98.67;97926.09;5046595;28;19989;-44
2022/04/23 10:22:54;;;;;;;;;;;;;;;19.61;96.41;97913.59;5060512;28;19921;-44
2022/04/23 10:25:38;;;;;;;;;;;;;;;19.89;93.13;97919.06;5062087;28;19946;-44
2022/04/23 10:28:04;;;;;;;;;;;;;;;18.94;91.49;97930.56;5061756;28;20042;-43
2022/04/23 10:30:30;;;;;;;;;;;;;;;19.40;95.34;97913.63;5061327;28;19920;-43
2022/04/23 10:32:56;;;;;;;;;;;;;;;19.28;92.25;97916.47;5063017;28;19928;-43
2022/04/23 10:35:21;;;;;;;;;;;;;;;18.81;91.20;97920.31;5062734;28;19994;-43
2022/04/23 10:37:49;;;;;;;;;;;;;;;19.20;92.91;97917.13;5060796;28;19928;-43
2022/04/23 10:40:16;;;;;;;;;;;;;;;19.59;94.59;97918.13;5064197;28;19922;-44
2022/04/23 10:43:13;;;;;;;;;;;;;;;20.27;89.00;97917.44;5060165;28;19991;-43
2022/04/23 10:45:40;;;;;;;;;;;;;;;19.91;89.64;97916.28;5025489;28;19920;-43
2022/04/23 10:48:24;;;;;;;;;;;;;;;19.67;89.18;97916.63;5064085;28;19966;-43
2022/04/23 10:51:08;;;;;;;;;;;;;;;18.80;91.17;97916.06;5061283;28;20412;-43
2022/04/23 10:53:41;;;;;;;;;;;;;;;19.20;90.29;97920.56;5065037;28;19924;-43
2022/04/23 10:56:07;;;;;;;;;;;;;;;21.46;87.09;97907.50;5063174;28;19924;-44
2022/04/23 10:58:33;;;;;;;;;;;;;;;21.70;79.36;97899.09;5063453;28;20736;-43
2022/04/23 11:01:16;;;;;;;;;;;;;;;21.18;83.13;97909.22;5062040;28;19920;-44
2022/04/23 11:03:43;;;;;;;;;;;;;;;21.55;84.74;97906.63;5065854;28;20534;-44
2022/04/23 11:12:21;;;;;;;;;;;;;;;20.91;82.56;97902.94;5044614;28;19972;-44
2022/04/23 11:14:51;;;;;;;;;;;;;;;21.72;82.56;97898.00;5062386;28;19921;-43
2022/04/23 11:17:20;;;;;;;;;;;;;;;21.00;83.24;97903.91;5060084;28;20372;-43
2022/04/23 11:19:50;;;;;;;;;;;;;;;22.21;79.56;97886.34;5064594;28;20554;-43
2022/04/23 11:22:15;;;;;;;;;;;;;;;21.46;80.52;97886.53;5060156;28;19917;-43
2022/04/23 11:24:40;;;;;;;;;;;;;;;21.59;76.43;97880.97;5064001;28;19990;-43
2022/04/23 11:27:08;;;;;;;;;;;;;;;21.57;74.82;97888.97;5061922;28;19931;-43
2022/04/23 11:29:33;;;;;;;;;;;;;;;21.43;79.89;97894.69;5062522;28;19923;-43
2022/04/23 11:31:59;;;;;;;;;;;;;;;20.27;79.17;97902.59;5064542;28;20351;-43
2022/04/23 11:34:24;;;;;;;;;;;;;;;20.23;82.43;97888.16;5064399;28;20536;-43
2022/04/23 11:36:49;;;;;;;;;;;;;;;19.70;85.65;97891.09;5059394;28;20499;-43
2022/04/23 11:39:15;;;;;;;;;;;;;;;21.75;78.87;97891.63;5062267;28;19960;-43
2022/04/23 11:41:44;;;;;;;;;;;;;;;22.14;77.42;97876.44;5066413;28;19916;-43
2022/04/23 11:44:12;;;;;;;;;;;;;;;21.23;73.68;97881.66;5062338;28;19924;-43
2022/04/23 11:46:44;;;;;;;;;;;;;;;19.85;82.94;97897.59;5062623;28;19975;-44
2022/04/23 11:49:09;;;;;;;;;;;;;;;21.26;80.99;97880.53;5065980;28;20745;-43
2022/04/23 11:51:35;;;;;;;;;;;;;;;20.69;80.51;97883.19;5063441;28;19924;-43
2022/04/23 11:54:00;;;;;;;;;;;;;;;21.27;78.58;97872.53;5062361;28;19927;-43
2022/04/23 11:56:29;;;;;;;;;;;;;;;20.22;79.18;97877.81;5060509;28;19964;-41
2022/04/23 11:58:58;;;;;;;;;;;;;;;20.98;76.21;97877.03;5064248;28;19920;-41
2022/04/23 12:01:24;;;;;;;;;;;;;;;20.94;77.23;97880.91;5062643;28;19946;-43
2022/04/23 12:03:52;;;;;;;;;;;;;;;21.05;77.27;97872.88;5063567;28;19920;-43
2022/04/23 12:06:18;;;;;;;;;;;;;;;20.33;73.04;97872.44;5061879;28;20785;-43
2022/04/23 12:08:43;;;;;;;;;;;;;;;19.90;82.97;97876.28;5062474;28;19921;-43
2022/04/23 12:11:19;;;;;;;;;;;;;;;20.23;81.32;97871.59;5061080;28;19920;-42
2022/04/23 12:13:44;;;;;;;;;;;;;;;20.75;82.91;97876.56;5061646;28;20437;-43
2022/04/23 12:16:09;;;;;;;;;;;;;;;21.26;81.51;97875.31;5062408;28;19946;-43
2022/04/23 12:18:36;;;;;;;;;;;;;;;20.78;79.85;97871.06;5066097;28;20389;-43
2022/04/23 12:21:05;;;;;;;;;;;;;;;21.12;75.41;97852.19;5062271;28;19916;-42
2022/04/23 12:23:39;;;;;;;;;;;;;;;20.25;80.10;97860.06;5061740;28;19916;-43
2022/04/23 12:26:07;;;;;;;;;;;;;;;21.19;75.17;97853.25;5064710;28;20015;-43
2022/04/23 12:42:23;;;;;;;;;;;;;;;21.43;76.54;97839.69;5065175;28;19985;-43
2022/04/23 12:44:49;;;;;;;;;;;;;;;21.74;72.20;97832.34;5061873;28;20396;-43
2022/04/23 12:47:18;;;;;;;;;;;;;;;22.24;74.53;97844.13;5062632;28;20278;-43
2022/04/23 12:49:50;;;;;;;;;;;;;;;21.33;69.16;97838.91;5063517;28;19927;-43
2022/04/23 12:52:22;;;;;;;;;;;;;;;21.21;73.26;97831.22;5063498;28;20583;-42
2022/04/23 12:55:06;;;;;;;;;;;;;;;22.21;72.17;97833.91;5062759;28;19966;-43
2022/04/23 12:57:31;;;;;;;;;;;;;;;21.79;75.04;97824.03;5061655;28;19995;-43
2022/04/23 12:59:56;;;;;;;;;;;;;;;21.86;73.48;97825.06;5063099;28;20019;-43
2022/04/23 13:02:22;;;;;;;;;;;;;;;22.70;67.09;97815.94;5061355;28;19943;-43
2022/04/23 13:04:47;;;;;;;;;;;;;;;21.33;68.73;97810.09;5067981;28;19939;-43
2022/04/23 13:09:56;;;;;;;;;;;;;;;22.09;72.28;97809.72;5063739;28;19927;-43
2022/04/23 13:12:21;;;;;;;;;;;;;;;21.95;69.14;97808.44;5062813;28;19920;-43
2022/04/23 13:14:46;;;;;;;;;;;;;;;21.82;75.86;97823.72;5065356;28;19912;-42